createdAt,value
2023-05-09T00:01:20.773Z,11.83
2023-05-09T00:03:47.756Z,11.13
2023-05-09T00:06:15.635Z,11.37
2023-05-09T00:08:42.304Z,11.57
2023-05-09T00:11:09.040Z,11.60
2023-05-09T00:13:35.930Z,11.60
2023-05-09T00:16:03.675Z,10.43
2023-05-09T00:18:31.272Z,11.00
2023-05-09T00:20:58.089Z,10.57
2023-05-09T00:23:25.516Z,11.67
2023-05-09T00:25:52.922Z,10.83
2023-05-09T00:28:20.105Z,11.33
2023-05-09T00:30:47.598Z,10.37
2023-05-09T00:33:14.181Z,10.63
2023-05-09T00:35:40.984Z,10.23
2023-05-09T00:38:07.639Z,9.63
2023-05-09T00:40:34.263Z,10.50
2023-05-09T00:43:00.832Z,10.77
2023-05-09T00:45:28.787Z,10.00
2023-05-09T00:47:55.635Z,10.07
2023-05-09T00:50:22.280Z,9.87
2023-05-09T00:52:48.929Z,10.57
2023-05-09T00:55:16.250Z,11.00
2023-05-09T00:57:43.125Z,11.50
2023-05-09T01:00:13.499Z,10.93
2023-05-09T01:02:43.319Z,11.20
2023-05-09T01:05:10.193Z,10.43
2023-05-09T01:07:36.830Z,9.87
2023-05-09T01:10:09.808Z,10.10
2023-05-09T01:12:45.640Z,10.93
2023-05-09T01:15:13.804Z,9.73
2023-05-09T01:17:43.268Z,10.23
2023-05-09T01:20:11.162Z,10.63
2023-05-09T01:22:38.139Z,10.03
2023-05-09T01:25:14.495Z,10.80
2023-05-09T01:27:47.426Z,9.83
2023-05-09T01:30:14.139Z,10.80
2023-05-09T01:32:40.866Z,9.97
2023-05-09T01:35:07.764Z,10.00
2023-05-09T01:37:35.036Z,10.40
2023-05-09T01:40:09.453Z,11.57
2023-05-09T02:17:56.425Z,10.20
2023-05-09T02:20:24.259Z,11.03
2023-05-09T02:22:50.930Z,10.20
2023-05-09T02:25:19.934Z,11.00
2023-05-09T02:27:46.561Z,10.47
2023-05-09T02:30:17.616Z,11.23
2023-05-09T02:32:44.927Z,10.20
2023-05-09T02:35:12.677Z,10.00
2023-05-09T02:37:40.310Z,9.00
2023-05-09T02:40:09.153Z,9.80
2023-05-09T02:42:36.040Z,11.17
2023-05-09T02:45:02.682Z,11.10
2023-05-09T02:47:29.373Z,11.00
2023-05-09T02:49:57.861Z,11.20
2023-05-09T02:52:24.540Z,11.57
2023-05-09T02:54:51.290Z,11.93
2023-05-09T02:57:18.681Z,12.27
2023-05-09T02:59:45.662Z,11.60
2023-05-09T03:02:12.359Z,11.77
2023-05-09T03:04:39.113Z,11.33
2023-05-09T03:07:05.968Z,11.37
2023-05-09T03:09:33.563Z,11.33
2023-05-09T03:12:01.169Z,10.00
2023-05-09T03:14:27.916Z,10.60
2023-05-09T03:16:55.731Z,11.30
2023-05-09T03:19:30.949Z,11.20
2023-05-09T03:22:00.082Z,10.97
2023-05-09T03:24:31.091Z,10.67
2023-05-09T03:26:57.724Z,10.23
2023-05-09T03:29:24.530Z,11.13
2023-05-09T03:31:51.281Z,11.70
2023-05-09T03:34:18.086Z,10.87
2023-05-09T03:36:45.667Z,11.43
2023-05-09T03:39:14.390Z,10.93
2023-05-09T03:41:44.303Z,11.27
2023-05-09T03:44:12.286Z,10.83
2023-05-09T03:46:38.984Z,10.73
2023-05-09T03:49:06.059Z,10.53
2023-05-09T03:51:34.036Z,11.13
2023-05-09T03:54:02.674Z,11.40
2023-05-09T03:56:29.632Z,10.77
2023-05-09T03:58:56.338Z,12.60
2023-05-09T04:01:24.902Z,12.00
2023-05-09T04:03:52.350Z,12.97
2023-05-09T04:06:20.713Z,12.83
2023-05-09T04:08:47.998Z,12.17
2023-05-09T04:11:14.663Z,12.17
2023-05-09T04:13:44.429Z,12.47
2023-05-09T04:16:22.149Z,12.27
2023-05-09T04:18:49.265Z,11.70
2023-05-09T04:21:15.998Z,12.13
2023-05-09T04:23:46.486Z,12.83
2023-05-09T04:26:15.621Z,11.97
2023-05-09T04:28:45.111Z,13.27
2023-05-09T04:31:14.980Z,12.80
2023-05-09T04:33:45.317Z,12.23
2023-05-09T04:36:12.459Z,11.90
2023-05-09T04:38:39.287Z,11.30
2023-05-09T04:41:10.469Z,11.40
2023-05-09T04:43:37.179Z,11.03
2023-05-09T04:46:04.427Z,11.10
2023-05-09T04:48:32.649Z,11.43
2023-05-09T04:50:59.338Z,11.20
2023-05-09T04:53:29.183Z,11.23
2023-05-09T04:55:57.031Z,11.47
2023-05-09T04:58:26.587Z,11.40
2023-05-09T05:00:56.350Z,11.73
2023-05-09T05:03:23.182Z,11.90
2023-05-09T05:05:49.959Z,11.93
2023-05-09T05:08:17.127Z,13.33
2023-05-09T05:10:44.645Z,13.67
2023-05-09T05:13:13.509Z,12.93
2023-05-09T05:15:44.511Z,13.20
2023-05-09T05:18:12.243Z,13.70
2023-05-09T05:20:42.954Z,12.93
2023-05-09T05:23:09.696Z,13.80
2023-05-09T05:25:36.377Z,13.67
2023-05-09T05:28:04.094Z,14.33
2023-05-09T05:30:33.519Z,13.53
2023-05-09T05:33:07.051Z,13.87
2023-05-09T05:35:34.018Z,12.43
2023-05-09T05:38:01.048Z,13.40
2023-05-09T05:40:28.220Z,12.83
2023-05-09T05:42:56.190Z,11.63
2023-05-09T05:45:23.926Z,11.90
2023-05-09T05:47:54.619Z,14.48
2023-05-09T05:50:23.339Z,13.50
2023-05-09T05:52:50.231Z,15.27
2023-05-09T05:55:19.367Z,13.60
2023-05-09T05:57:47.940Z,16.93
2023-05-09T06:00:16.462Z,11.13
2023-05-09T06:02:52.119Z,6.90
2023-05-09T06:05:28.471Z,7.67
2023-05-09T06:07:55.511Z,6.00
2023-05-09T06:10:22.240Z,5.80
2023-05-09T06:12:49.080Z,5.47
2023-05-09T06:15:16.251Z,5.10
2023-05-09T06:17:46.316Z,5.43
2023-05-09T06:20:13.182Z,4.17
2023-05-09T06:22:39.856Z,4.10
2023-05-09T06:25:08.123Z,4.13
2023-05-09T06:27:36.996Z,4.60
2023-05-09T06:30:14.055Z,4.70
2023-05-09T06:32:51.860Z,5.00
2023-05-09T06:35:22.410Z,5.00
2023-05-09T06:37:49.453Z,4.67
2023-05-09T06:40:16.787Z,4.80
2023-05-09T06:42:43.674Z,4.03
2023-05-09T06:45:10.875Z,4.30
2023-05-09T06:47:37.646Z,4.10
2023-05-09T06:50:05.804Z,3.57
2023-05-09T06:52:32.682Z,3.97
2023-05-09T06:55:03.169Z,3.57
2023-05-09T06:57:30.103Z,3.40
2023-05-09T06:59:56.958Z,3.30
2023-05-09T07:02:23.701Z,3.50
2023-05-09T07:04:51.909Z,3.27
2023-05-09T07:07:23.546Z,3.03
2023-05-09T07:09:52.941Z,2.80
2023-05-09T07:12:22.267Z,2.70
2023-05-09T07:14:49.034Z,3.10
2023-05-09T07:17:23.596Z,2.80
2023-05-09T07:19:52.198Z,2.67
2023-05-09T07:22:19.336Z,2.70
2023-05-09T07:24:46.871Z,3.00
2023-05-09T07:27:13.934Z,3.20
2023-05-09T07:29:40.746Z,2.63
2023-05-09T07:32:07.542Z,3.53
2023-05-09T07:34:34.460Z,3.07
2023-05-09T07:37:01.257Z,3.10
2023-05-09T07:39:30.428Z,2.73
2023-05-09T07:41:57.181Z,3.03
2023-05-09T07:44:25.158Z,3.20
2023-05-09T07:46:52.622Z,3.37
2023-05-09T07:49:19.357Z,3.13
2023-05-09T07:51:46.130Z,3.50
2023-05-09T07:54:13.014Z,3.03
2023-05-09T07:56:39.962Z,3.10
2023-05-09T07:59:06.778Z,3.30
2023-05-09T08:01:33.524Z,3.00
2023-05-09T08:04:00.463Z,2.80
2023-05-09T08:06:28.711Z,3.20
2023-05-09T08:08:55.464Z,3.37
2023-05-09T08:11:22.189Z,3.57
2023-05-09T08:13:50.652Z,2.97
2023-05-09T08:16:17.687Z,3.43
2023-05-09T08:18:45.661Z,3.37
2023-05-09T08:21:13.533Z,3.20
2023-05-09T08:23:41.757Z,3.10
2023-05-09T08:26:08.541Z,3.10
2023-05-09T08:28:35.464Z,3.27
2023-05-09T08:31:02.371Z,3.60
2023-05-09T08:33:29.178Z,3.20
2023-05-09T08:35:56.551Z,3.10
2023-05-09T08:38:24.436Z,3.23
2023-05-09T08:40:51.207Z,3.60
2023-05-09T08:43:19.361Z,3.13
2023-05-09T08:45:49.388Z,3.50
2023-05-09T08:48:16.645Z,3.23
2023-05-09T08:50:48.315Z,2.90
2023-05-09T08:53:16.545Z,2.93
2023-05-09T08:55:43.402Z,4.10
2023-05-09T08:58:10.309Z,3.70
2023-05-09T09:00:37.291Z,3.80
2023-05-09T09:03:06.254Z,3.90
2023-05-09T09:05:41.807Z,3.47
2023-05-09T09:08:09.607Z,3.83
2023-05-09T09:10:36.405Z,3.40
2023-05-09T09:13:05.064Z,3.40
2023-05-09T09:15:34.661Z,3.17
2023-05-09T09:18:06.938Z,3.00
2023-05-09T09:20:34.917Z,3.40
2023-05-09T09:23:02.343Z,3.63
2023-05-09T09:25:32.304Z,3.60
2023-05-09T09:27:59.028Z,3.53
2023-05-09T09:30:26.381Z,3.30
2023-05-09T09:32:53.113Z,3.20
2023-05-09T09:35:20.586Z,3.70
2023-05-09T09:37:47.301Z,3.43
2023-05-09T09:40:14.812Z,3.60
2023-05-09T09:42:47.754Z,2.90
2023-05-09T09:45:16.645Z,3.10
2023-05-09T09:47:43.468Z,3.13
2023-05-09T09:50:12.153Z,3.53
2023-05-09T09:52:42.931Z,3.20
2023-05-09T09:55:09.731Z,3.50
2023-05-09T09:57:40.006Z,3.47
2023-05-09T10:00:07.993Z,3.20
2023-05-09T10:02:36.055Z,3.70
2023-05-09T10:05:11.100Z,3.67
2023-05-09T10:07:38.599Z,3.23
2023-05-09T10:10:06.335Z,2.80
2023-05-09T10:12:34.474Z,3.07
2023-05-09T10:15:02.185Z,3.13
2023-05-09T10:17:29.017Z,3.10
2023-05-09T10:19:56.090Z,3.77
2023-05-09T10:22:22.857Z,3.33
2023-05-09T10:25:22.363Z,3.93
2023-05-09T10:27:49.176Z,3.90
2023-05-09T10:30:22.332Z,3.63
2023-05-09T10:32:58.582Z,3.13
2023-05-09T10:35:26.859Z,3.17
2023-05-09T10:37:56.143Z,3.60
2023-05-09T10:40:23.829Z,2.70
2023-05-09T10:42:50.508Z,3.30
2023-05-09T10:45:17.703Z,3.47
2023-05-09T10:47:44.691Z,3.20
2023-05-09T10:50:12.655Z,2.87
2023-05-09T10:52:59.329Z,2.70
2023-05-09T10:55:35.104Z,2.90
2023-05-09T10:58:10.049Z,2.80
2023-05-09T11:00:40.805Z,2.80
2023-05-09T11:03:10.410Z,2.60
2023-05-09T11:05:40.337Z,2.80
2023-05-09T11:08:27.378Z,2.80
2023-05-09T11:10:54.758Z,2.63
2023-05-09T11:13:24.067Z,2.70
2023-05-09T11:15:56.104Z,2.90
2023-05-09T11:18:23.214Z,2.20
2023-05-09T11:20:51.465Z,2.30
2023-05-09T11:23:23.153Z,2.53
2023-05-09T11:25:49.901Z,2.63
2023-05-09T11:28:41.274Z,2.30
2023-05-09T11:31:09.285Z,2.67
2023-05-09T11:33:36.205Z,2.17
2023-05-09T11:36:26.464Z,2.33
2023-05-09T11:39:06.674Z,3.53
2023-05-09T11:41:41.513Z,4.60
2023-05-09T11:44:18.081Z,4.67
2023-05-09T11:46:45.329Z,2.57
2023-05-09T11:49:12.471Z,2.63
2023-05-09T11:51:39.287Z,2.47
2023-05-09T11:54:08.479Z,2.00
2023-05-09T11:56:35.547Z,2.50
2023-05-09T11:59:02.315Z,2.63
2023-05-09T12:01:29.669Z,2.50
2023-05-09T12:03:56.426Z,2.30
2023-05-09T12:06:30.175Z,2.07
2023-05-09T12:08:59.862Z,2.10
2023-05-09T12:11:26.584Z,2.10
2023-05-09T12:13:53.526Z,2.53
2023-05-09T12:16:20.318Z,2.70
2023-05-09T12:18:50.354Z,2.30
2023-05-09T12:21:22.254Z,2.30
2023-05-09T12:23:51.249Z,10.60
2023-05-09T12:26:19.107Z,7.70
2023-05-09T12:28:45.897Z,2.53
2023-05-09T12:31:13.082Z,2.43
2023-05-09T12:33:40.084Z,2.10
2023-05-09T12:36:11.498Z,2.30
2023-05-09T12:38:38.589Z,2.00
2023-05-09T12:41:06.703Z,2.03
2023-05-09T12:43:37.893Z,2.10
2023-05-09T12:46:04.983Z,2.10
2023-05-09T12:48:35.402Z,1.90
2023-05-09T12:51:02.833Z,2.00
2023-05-09T12:53:31.830Z,2.30
2023-05-09T12:56:04.870Z,2.10
2023-05-09T12:58:32.099Z,2.27
2023-05-09T13:00:59.253Z,2.03
2023-05-09T13:03:31.289Z,2.20
2023-05-09T13:06:01.434Z,1.90
2023-05-09T13:08:28.478Z,2.20
2023-05-09T13:11:03.941Z,2.40
2023-05-09T13:13:35.035Z,2.13
2023-05-09T13:16:03.757Z,2.10
2023-05-09T13:18:30.548Z,2.20
2023-05-09T13:20:57.221Z,2.60
2023-05-09T13:23:23.986Z,2.90
2023-05-09T13:25:50.575Z,2.63
2023-05-09T13:28:17.164Z,2.13
2023-05-09T13:30:45.823Z,3.53
2023-05-09T13:33:24.568Z,4.70
2023-05-09T13:35:54.427Z,2.10
2023-05-09T13:38:21.039Z,1.87
2023-05-09T13:40:47.674Z,2.40
2023-05-09T13:43:14.696Z,2.10
2023-05-09T13:45:41.426Z,1.80
2023-05-09T13:48:08.215Z,2.40
2023-05-09T13:50:35.964Z,2.37
2023-05-09T13:53:03.535Z,2.10
2023-05-09T13:55:30.981Z,2.07
2023-05-09T13:57:57.807Z,2.20
2023-05-09T14:00:27.235Z,2.37
2023-05-09T14:02:53.994Z,2.27
2023-05-09T14:05:20.777Z,2.10
2023-05-09T14:07:47.648Z,1.87
2023-05-09T14:10:14.354Z,2.10
2023-05-09T14:12:44.335Z,2.37
2023-05-09T14:15:11.320Z,1.80
2023-05-09T14:17:38.090Z,2.20
2023-05-09T14:20:06.236Z,2.30
2023-05-09T14:22:32.833Z,1.93
2023-05-09T14:24:59.555Z,2.17
2023-05-09T14:27:26.506Z,2.00
2023-05-09T14:29:53.503Z,2.20
2023-05-09T14:32:20.103Z,2.20
2023-05-09T14:34:49.683Z,1.93
2023-05-09T14:37:16.439Z,2.23
2023-05-09T14:39:45.312Z,2.20
2023-05-09T14:42:14.250Z,2.07
2023-05-09T14:44:41.391Z,2.17
2023-05-09T14:47:08.721Z,2.03
2023-05-09T14:49:37.554Z,2.17
2023-05-09T14:52:04.180Z,3.07
2023-05-09T14:54:31.020Z,2.40
2023-05-09T14:56:59.554Z,1.90
2023-05-09T14:59:26.235Z,2.13
2023-05-09T15:01:52.932Z,2.00
2023-05-09T15:04:19.652Z,2.43
2023-05-09T15:06:46.418Z,2.20
2023-05-09T15:09:13.198Z,2.40
2023-05-09T15:11:47.704Z,2.00
2023-05-09T15:14:16.703Z,2.70
2023-05-09T15:16:44.366Z,1.80
2023-05-09T15:19:11.522Z,2.17
2023-05-09T15:21:38.211Z,2.30
2023-05-09T15:24:05.030Z,2.17
2023-05-09T15:26:32.339Z,2.20
2023-05-09T15:28:59.887Z,2.07
2023-05-09T15:31:26.802Z,2.20
2023-05-09T15:33:53.976Z,2.20
2023-05-09T15:36:20.672Z,2.60
2023-05-09T15:38:49.726Z,1.87
2023-05-09T15:41:16.960Z,2.00
2023-05-09T15:43:43.790Z,2.10
2023-05-09T15:46:10.690Z,2.30
2023-05-09T15:48:37.532Z,2.00
2023-05-09T15:51:04.320Z,2.40
2023-05-09T15:53:31.947Z,2.10
2023-05-09T15:55:58.547Z,3.10
2023-05-09T15:58:25.294Z,2.70
2023-05-09T16:00:52.069Z,2.10
2023-05-09T16:03:18.957Z,1.93
2023-05-09T16:05:45.703Z,1.93
2023-05-09T16:08:13.482Z,2.13
2023-05-09T16:10:40.874Z,2.30
2023-05-09T16:13:07.963Z,2.13
2023-05-09T16:15:35.308Z,2.23
2023-05-09T16:18:02.247Z,2.27
2023-05-09T16:20:28.998Z,2.33
2023-05-09T16:22:55.772Z,2.50
2023-05-09T16:25:23.001Z,2.03
2023-05-09T16:27:49.736Z,2.10
2023-05-09T16:30:16.886Z,2.80
2023-05-09T16:32:44.858Z,2.00
2023-05-09T16:35:11.558Z,2.40
2023-05-09T16:37:38.718Z,2.07
2023-05-09T16:40:05.744Z,1.93
2023-05-09T16:42:32.796Z,2.30
2023-05-09T16:44:59.480Z,2.37
2023-05-09T16:47:27.847Z,2.37
2023-05-09T16:49:54.673Z,2.30
2023-05-09T16:52:23.255Z,2.10
2023-05-09T16:54:50.602Z,2.20
2023-05-09T16:57:17.440Z,2.00
2023-05-09T16:59:45.414Z,2.40
2023-05-09T17:02:12.279Z,2.10
2023-05-09T17:04:39.102Z,2.23
2023-05-09T17:07:06.022Z,2.40
2023-05-09T17:09:32.889Z,2.60
2023-05-09T17:12:00.729Z,2.33
2023-05-09T17:14:28.972Z,2.03
2023-05-09T17:16:55.850Z,2.10
2023-05-09T17:19:23.744Z,2.00
2023-05-09T17:21:50.825Z,2.00
2023-05-09T17:24:17.980Z,2.00
2023-05-09T17:26:46.670Z,2.40
2023-05-09T17:29:13.826Z,2.00
2023-05-09T17:31:41.533Z,2.33
2023-05-09T17:34:08.431Z,2.43
2023-05-09T17:36:37.690Z,2.23
2023-05-09T17:39:04.962Z,2.70
2023-05-09T17:41:31.685Z,2.27
2023-05-09T17:43:58.375Z,2.13
2023-05-09T17:46:25.370Z,2.30
2023-05-09T17:48:52.161Z,2.57
2023-05-09T17:51:18.901Z,2.87
2023-05-09T17:53:45.694Z,2.50
2023-05-09T17:56:13.221Z,2.50
2023-05-09T17:58:40.436Z,2.37
2023-05-09T18:01:07.265Z,2.50
2023-05-09T18:03:34.151Z,2.30
2023-05-09T18:06:03.666Z,2.27
2023-05-09T18:08:32.105Z,2.80
2023-05-09T18:10:58.971Z,2.50
2023-05-09T18:13:27.090Z,2.30
2023-05-09T18:15:59.380Z,2.63
2023-05-09T18:18:33.581Z,3.70
2023-05-09T18:21:03.296Z,2.90
2023-05-09T18:23:30.617Z,2.57
2023-05-09T18:25:59.715Z,2.60
2023-05-09T18:28:30.765Z,2.90
2023-05-09T18:30:58.574Z,2.53
2023-05-09T18:33:25.721Z,2.37
2023-05-09T18:35:53.112Z,2.90
2023-05-09T18:38:20.150Z,2.57
2023-05-09T18:40:47.428Z,2.70
2023-05-09T18:43:14.559Z,3.53
2023-05-09T18:45:45.601Z,4.03
2023-05-09T18:48:13.826Z,4.40
2023-05-09T18:50:42.022Z,3.70
2023-05-09T18:53:09.368Z,3.70
2023-05-09T18:55:37.616Z,3.57
2023-05-09T18:58:04.419Z,3.90
2023-05-09T19:00:31.149Z,4.20
2023-05-09T19:02:59.276Z,12.60
2023-05-09T19:05:26.167Z,7.73
2023-05-09T19:07:54.096Z,5.53
2023-05-09T19:10:21.188Z,3.97
2023-05-09T19:12:49.281Z,4.10
2023-05-09T19:15:16.214Z,4.83
2023-05-09T19:17:44.011Z,4.50
2023-05-09T19:20:11.146Z,4.87
2023-05-09T19:22:41.126Z,5.13
2023-05-09T19:25:08.252Z,5.27
2023-05-09T19:27:35.929Z,5.23
2023-05-09T19:30:05.333Z,4.10
2023-05-09T19:32:33.115Z,5.43
2023-05-09T19:34:59.852Z,5.40
2023-05-09T19:37:26.959Z,5.73
2023-05-09T19:39:53.733Z,6.43
2023-05-09T19:42:21.707Z,5.33
2023-05-09T19:44:49.321Z,5.53
2023-05-09T19:47:15.994Z,5.70
2023-05-09T19:49:43.174Z,4.60
2023-05-09T19:52:11.968Z,4.97
2023-05-09T19:54:38.915Z,5.20
2023-05-09T19:57:07.125Z,5.40
2023-05-09T19:59:34.324Z,5.47
2023-05-09T20:02:02.667Z,6.33
2023-05-09T20:04:36.431Z,10.33
2023-05-09T20:07:06.669Z,9.20
2023-05-09T20:09:35.884Z,10.80
2023-05-09T20:12:03.883Z,9.50
2023-05-09T20:14:31.855Z,8.63
2023-05-09T20:16:58.872Z,8.33
2023-05-09T20:19:25.638Z,7.37
2023-05-09T20:21:54.176Z,6.17
2023-05-09T20:24:21.021Z,5.63
2023-05-09T20:26:48.115Z,5.30
2023-05-09T20:29:17.733Z,4.20
2023-05-09T20:31:48.854Z,4.37
2023-05-09T20:34:18.924Z,4.33
2023-05-09T20:36:46.971Z,4.77
2023-05-09T20:39:17.925Z,3.90
2023-05-09T20:41:45.926Z,4.13
2023-05-09T20:44:13.393Z,3.97
2023-05-09T20:46:43.481Z,4.13
2023-05-09T20:49:11.359Z,4.30
2023-05-09T20:51:38.572Z,4.80
2023-05-09T20:54:06.494Z,4.83
2023-05-09T20:56:43.092Z,4.77
2023-05-09T20:59:10.671Z,4.70
2023-05-09T21:01:37.552Z,4.50
2023-05-09T21:04:05.983Z,4.47
2023-05-09T21:06:33.295Z,4.63
2023-05-09T21:09:00.882Z,4.60
2023-05-09T21:11:28.482Z,4.07
2023-05-09T21:13:55.245Z,4.27
2023-05-09T21:16:22.154Z,4.47
2023-05-09T21:18:48.955Z,4.53
2023-05-09T21:21:15.646Z,4.50
2023-05-09T21:23:42.268Z,4.23
2023-05-09T21:26:09.153Z,4.70
2023-05-09T21:28:35.808Z,4.10
2023-05-09T21:31:02.507Z,4.23
2023-05-09T21:33:29.621Z,3.80
2023-05-09T21:35:56.290Z,3.70
2023-05-09T21:38:23.028Z,3.50
2023-05-09T21:40:50.089Z,3.47
2023-05-09T21:43:18.261Z,3.63
2023-05-09T21:45:45.435Z,3.50
2023-05-09T21:48:13.355Z,3.50
2023-05-09T21:50:40.148Z,3.03
2023-05-09T21:53:06.787Z,3.03
2023-05-09T21:55:34.260Z,3.17
2023-05-09T21:58:01.129Z,2.90
2023-05-09T22:00:27.906Z,2.70
2023-05-09T22:02:55.916Z,3.30
2023-05-09T22:05:23.882Z,3.27
2023-05-09T22:07:51.293Z,3.40
2023-05-09T22:10:18.121Z,2.77
2023-05-09T22:12:46.372Z,2.87
2023-05-09T22:15:15.686Z,2.83
2023-05-09T22:17:42.633Z,2.70
2023-05-09T22:20:09.606Z,3.27
2023-05-09T22:22:36.826Z,3.03
2023-05-09T22:25:04.563Z,3.30
2023-05-09T22:27:31.706Z,2.80
2023-05-09T22:29:58.471Z,3.30
2023-05-09T22:32:25.864Z,3.10
2023-05-09T22:34:54.139Z,3.73
2023-05-09T22:37:20.830Z,3.07
2023-05-09T22:39:47.531Z,3.20
2023-05-09T22:42:14.236Z,2.80
2023-05-09T22:44:41.014Z,2.90
2023-05-09T22:47:08.509Z,2.47
2023-05-09T22:49:35.702Z,2.90
2023-05-09T22:52:02.636Z,3.00
2023-05-09T22:54:29.374Z,3.10
2023-05-09T22:56:56.766Z,2.70
2023-05-09T22:59:23.802Z,3.37
2023-05-09T23:01:51.032Z,2.77
2023-05-09T23:04:17.638Z,3.10
2023-05-09T23:06:44.295Z,2.60
2023-05-09T23:09:11.091Z,2.90
2023-05-09T23:11:37.946Z,2.90
2023-05-09T23:14:04.741Z,3.07
2023-05-09T23:16:31.818Z,2.73
2023-05-09T23:18:58.553Z,3.27
2023-05-09T23:21:25.142Z,2.53
2023-05-09T23:23:51.781Z,2.93
2023-05-09T23:26:19.292Z,2.87
2023-05-09T23:28:46.019Z,3.17
2023-05-09T23:31:12.757Z,3.70
2023-05-09T23:33:39.897Z,3.00
2023-05-09T23:36:06.873Z,3.23
2023-05-09T23:38:33.492Z,3.40
2023-05-09T23:41:01.162Z,3.10
2023-05-09T23:43:27.955Z,3.13
2023-05-09T23:45:58.421Z,3.10
2023-05-09T23:48:25.839Z,3.20
2023-05-09T23:50:52.571Z,2.90
2023-05-09T23:53:21.044Z,3.33
2023-05-09T23:55:47.653Z,3.00
2023-05-09T23:58:14.309Z,2.83
